Sarasota, FL

8:16 AM EST on December 08, 2016 (GMT -0500)
Terrace Gardens | | Change Station

Elev 30 ft 27.33 °N, 82.52 °W | Updated 17 seconds ago

Mostly Cloudy
Mostly Cloudy
64.8 °F
Feels Like 64.8 °F
N
2.0
Wind Variable Wind from ESE
Gusts 2.0 mph

Today
High -- | Low -- °F
--% Chance of Precip.
Yesterday
High -- | Low -- °F
Precip. -- in
Pressure 30.12 in
Visibility 8.0 miles
Clouds Few 11000 ft
Dew Point 59 °F
Humidity 82%
Rainfall 0.00 in
Snow Depth Not available.
7:08 AM 5:36 PM
Waxing Gibbous, 63% visible
METAR KSRQ 081253Z 02004KT 8SM FEW110 17/16 A3012 RMK AO2 SLP198 T01720156
Pressure 30.12 in
Visibility 8.0 miles
Clouds Few 11000 ft
Dew Point 59 °F
Humidity 82%
Rainfall 0.00 in
Snow Depth Not available.
7:08 AM 5:36 PM
Waxing Gibbous, 63% visible
METAR KSRQ 081253Z 02004KT 8SM FEW110 17/16 A3012 RMK AO2 SLP198 T01720156

10-Day Weather Forecast

Almanac

Astronomy

Dec. 08, 2016 Rise Set
Actual Time
Civil Twilight
Nautical Twilight
Astronomical Twilight
Moon
Length of Visible Light
Length of Day
Tomorrow will be .
, % of the Moon is Illuminated

Today's Extremes

State Highs State Lows

Community

WunderPhotos

Upload Photos

1,956,267 photos uploaded!

WunderBlog® & News

Nearby

Air Quality

  Air Quality AQ Index Pollutant
Not available.

Snow Depth

Station Depth Elevation

Earthquake Activity

City Distance Mag. Time & Date
Minimum magnitude displayed is 2.5.

Coastal Water Temperatures

Place Temperature

Stations

Nearby Weather Stations

Station Location Temp. Windchill Dew Point Humidity Wind Precip. Elev Updated Type
                   

Watches & Warnings

There are currently no watches in effect.